sensor_id;sensor_type;location;lat;lon;timestamp;temperature;humidity
68387;DHT22;55338;43.062;25.624;2023-03-21T00:00:16;6.90;99.90
68387;DHT22;55338;43.062;25.624;2023-03-21T00:02:42;6.90;99.90
68387;DHT22;55338;43.062;25.624;2023-03-21T00:05:08;7.00;99.90
68387;DHT22;55338;43.062;25.624;2023-03-21T00:07:34;7.00;99.90
68387;DHT22;55338;43.062;25.624;2023-03-21T00:10:00;7.10;99.90
68387;DHT22;55338;43.062;25.624;2023-03-21T00:12:25;7.20;99.90
68387;DHT22;55338;43.062;25.624;2023-03-21T00:14:51;7.20;99.90
68387;DHT22;55338;43.062;25.624;2023-03-21T00:17:18;7.20;99.90
68387;DHT22;55338;43.062;25.624;2023-03-21T00:19:47;7.20;99.90
68387;DHT22;55338;43.062;25.624;2023-03-21T00:22:13;7.20;99.90
68387;DHT22;55338;43.062;25.624;2023-03-21T00:24:39;7.20;99.90
68387;DHT22;55338;43.062;25.624;2023-03-21T00:27:05;7.20;99.90
68387;DHT22;55338;43.062;25.624;2023-03-21T00:29:32;7.20;99.90
68387;DHT22;55338;43.062;25.624;2023-03-21T00:31:57;7.30;99.90
68387;DHT22;55338;43.062;25.624;2023-03-21T00:34:23;7.30;99.90
68387;DHT22;55338;43.062;25.624;2023-03-21T00:36:49;7.30;99.90
68387;DHT22;55338;43.062;25.624;2023-03-21T00:39:15;7.30;99.90
68387;DHT22;55338;43.062;25.624;2023-03-21T00:41:41;7.30;99.90
68387;DHT22;55338;43.062;25.624;2023-03-21T00:44:06;7.20;99.90
68387;DHT22;55338;43.062;25.624;2023-03-21T00:46:32;7.30;99.90
68387;DHT22;55338;43.062;25.624;2023-03-21T00:49:00;7.30;99.90
68387;DHT22;55338;43.062;25.624;2023-03-21T00:51:25;7.30;99.90
68387;DHT22;55338;43.062;25.624;2023-03-21T00:53:56;7.30;99.90
68387;DHT22;55338;43.062;25.624;2023-03-21T00:56:22;7.30;99.90
68387;DHT22;55338;43.062;25.624;2023-03-21T00:58:48;7.30;99.90
68387;DHT22;55338;43.062;25.624;2023-03-21T01:01:14;7.30;99.90
68387;DHT22;55338;43.062;25.624;2023-03-21T01:03:40;7.20;99.90
68387;DHT22;55338;43.062;25.624;2023-03-21T01:06:16;7.30;99.90
68387;DHT22;55338;43.062;25.624;2023-03-21T01:08:44;7.40;99.90
68387;DHT22;55338;43.062;25.624;2023-03-21T01:11:14;7.40;99.90
68387;DHT22;55338;43.062;25.624;2023-03-21T01:13:41;7.40;99.90
68387;DHT22;55338;43.062;25.624;2023-03-21T01:16:07;7.40;99.90
68387;DHT22;55338;43.062;25.624;2023-03-21T01:18:35;7.40;99.90
68387;DHT22;55338;43.062;25.624;2023-03-21T01:21:04;7.40;99.90
68387;DHT22;55338;43.062;25.624;2023-03-21T01:23:30;7.40;99.90
68387;DHT22;55338;43.062;25.624;2023-03-21T01:25:57;7.40;99.90
68387;DHT22;55338;43.062;25.624;2023-03-21T01:28:25;7.30;99.90
68387;DHT22;55338;43.062;25.624;2023-03-21T01:30:51;7.30;99.90
68387;DHT22;55338;43.062;25.624;2023-03-21T01:33:18;7.20;99.90
68387;DHT22;55338;43.062;25.624;2023-03-21T01:35:45;7.30;99.90
68387;DHT22;55338;43.062;25.624;2023-03-21T01:38:11;7.40;99.90
68387;DHT22;55338;43.062;25.624;2023-03-21T01:40:38;7.30;99.90
68387;DHT22;55338;43.062;25.624;2023-03-21T01:43:05;7.80;99.90
68387;DHT22;55338;43.062;25.624;2023-03-21T01:48:28;7.40;99.90
68387;DHT22;55338;43.062;25.624;2023-03-21T01:50:54;7.30;99.90
68387;DHT22;55338;43.062;25.624;2023-03-21T01:53:24;7.30;99.90
68387;DHT22;55338;43.062;25.624;2023-03-21T01:55:56;7.40;99.90
68387;DHT22;55338;43.062;25.624;2023-03-21T01:58:23;7.40;99.90
68387;DHT22;55338;43.062;25.624;2023-03-21T02:00:50;7.40;99.90
68387;DHT22;55338;43.062;25.624;2023-03-21T02:03:16;7.40;99.90
68387;DHT22;55338;43.062;25.624;2023-03-21T02:05:58;7.50;99.90
68387;DHT22;55338;43.062;25.624;2023-03-21T02:08:31;7.40;99.90
68387;DHT22;55338;43.062;25.624;2023-03-21T02:10:58;7.40;99.90
68387;DHT22;55338;43.062;25.624;2023-03-21T02:13:24;7.40;99.90
68387;DHT22;55338;43.062;25.624;2023-03-21T02:21:55;7.40;99.90
68387;DHT22;55338;43.062;25.624;2023-03-21T02:27:01;7.30;99.90
68387;DHT22;55338;43.062;25.624;2023-03-21T02:35:03;7.40;99.90
68387;DHT22;55338;43.062;25.624;2023-03-21T02:37:41;7.40;99.90
68387;DHT22;55338;43.062;25.624;2023-03-21T02:40:15;7.30;99.90
68387;DHT22;55338;43.062;25.624;2023-03-21T02:45:52;7.30;99.90
68387;DHT22;55338;43.062;25.624;2023-03-21T02:48:26;7.30;99.90
68387;DHT22;55338;43.062;25.624;2023-03-21T02:50:58;7.30;99.90
68387;DHT22;55338;43.062;25.624;2023-03-21T02:53:29;7.20;99.90
68387;DHT22;55338;43.062;25.624;2023-03-21T02:55:56;7.30;99.90
68387;DHT22;55338;43.062;25.624;2023-03-21T02:58:24;7.30;99.90
68387;DHT22;55338;43.062;25.624;2023-03-21T03:00:52;7.30;99.90
68387;DHT22;55338;43.062;25.624;2023-03-21T03:03:21;7.30;99.90
68387;DHT22;55338;43.062;25.624;2023-03-21T03:05:51;7.30;99.90
68387;DHT22;55338;43.062;25.624;2023-03-21T03:19:16;7.40;99.90
68387;DHT22;55338;43.062;25.624;2023-03-21T03:21:54;7.50;99.90
68387;DHT22;55338;43.062;25.624;2023-03-21T03:24:28;7.50;99.90
68387;DHT22;55338;43.062;25.624;2023-03-21T03:26:58;7.50;99.90
68387;DHT22;55338;43.062;25.624;2023-03-21T03:29:29;7.50;99.90
68387;DHT22;55338;43.062;25.624;2023-03-21T03:32:02;7.60;99.90
68387;DHT22;55338;43.062;25.624;2023-03-21T03:34:33;7.60;99.90
68387;DHT22;55338;43.062;25.624;2023-03-21T03:37:06;7.60;99.90
68387;DHT22;55338;43.062;25.624;2023-03-21T03:39:39;7.50;99.90
68387;DHT22;55338;43.062;25.624;2023-03-21T03:42:27;7.50;99.90
68387;DHT22;55338;43.062;25.624;2023-03-21T03:44:55;7.50;99.90
68387;DHT22;55338;43.062;25.624;2023-03-21T03:50:06;7.60;99.90
68387;DHT22;55338;43.062;25.624;2023-03-21T03:52:37;7.70;99.90
68387;DHT22;55338;43.062;25.624;2023-03-21T03:55:04;7.70;99.90
68387;DHT22;55338;43.062;25.624;2023-03-21T03:57:30;7.70;99.90
68387;DHT22;55338;43.062;25.624;2023-03-21T03:59:57;7.70;99.90
68387;DHT22;55338;43.062;25.624;2023-03-21T04:02:23;7.70;99.90
68387;DHT22;55338;43.062;25.624;2023-03-21T04:04:49;7.80;99.90
68387;DHT22;55338;43.062;25.624;2023-03-21T04:07:18;7.80;99.90
68387;DHT22;55338;43.062;25.624;2023-03-21T04:09:45;7.80;99.90
68387;DHT22;55338;43.062;25.624;2023-03-21T04:12:12;7.90;99.90
68387;DHT22;55338;43.062;25.624;2023-03-21T04:14:38;7.90;99.90
68387;DHT22;55338;43.062;25.624;2023-03-21T04:17:03;7.80;99.90
68387;DHT22;55338;43.062;25.624;2023-03-21T04:19:29;7.80;99.90
68387;DHT22;55338;43.062;25.624;2023-03-21T04:21:55;7.80;99.90
68387;DHT22;55338;43.062;25.624;2023-03-21T04:24:21;7.80;99.90
68387;DHT22;55338;43.062;25.624;2023-03-21T04:26:47;7.80;99.90
68387;DHT22;55338;43.062;25.624;2023-03-21T04:29:12;7.80;99.90
68387;DHT22;55338;43.062;25.624;2023-03-21T04:31:38;7.80;99.90
68387;DHT22;55338;43.062;25.624;2023-03-21T04:34:06;7.80;99.90
68387;DHT22;55338;43.062;25.624;2023-03-21T04:36:37;7.80;99.90
68387;DHT22;55338;43.062;25.624;2023-03-21T04:39:06;7.90;99.90
68387;DHT22;55338;43.062;25.624;2023-03-21T04:41:38;7.90;99.90
68387;DHT22;55338;43.062;25.624;2023-03-21T04:44:04;8.00;99.90
68387;DHT22;55338;43.062;25.624;2023-03-21T04:46:30;8.00;99.90
68387;DHT22;55338;43.062;25.624;2023-03-21T04:48:56;8.10;99.90
68387;DHT22;55338;43.062;25.624;2023-03-21T04:51:21;8.20;99.90
68387;DHT22;55338;43.062;25.624;2023-03-21T04:53:47;8.30;99.90
68387;DHT22;55338;43.062;25.624;2023-03-21T04:56:14;8.30;99.90
68387;DHT22;55338;43.062;25.624;2023-03-21T04:58:41;8.30;99.90
68387;DHT22;55338;43.062;25.624;2023-03-21T05:01:07;8.30;99.90
68387;DHT22;55338;43.062;25.624;2023-03-21T05:03:33;8.30;99.90
68387;DHT22;55338;43.062;25.624;2023-03-21T05:06:08;8.30;99.90
68387;DHT22;55338;43.062;25.624;2023-03-21T05:08:35;8.40;99.90
68387;DHT22;55338;43.062;25.624;2023-03-21T05:11:02;8.40;99.90
68387;DHT22;55338;43.062;25.624;2023-03-21T05:13:27;8.50;99.90
68387;DHT22;55338;43.062;25.624;2023-03-21T05:15:54;8.50;99.90
68387;DHT22;55338;43.062;25.624;2023-03-21T05:18:20;8.60;99.90
68387;DHT22;55338;43.062;25.624;2023-03-21T05:20:51;8.60;99.90
68387;DHT22;55338;43.062;25.624;2023-03-21T05:23:19;8.70;99.90
68387;DHT22;55338;43.062;25.624;2023-03-21T05:25:45;8.70;99.90
68387;DHT22;55338;43.062;25.624;2023-03-21T05:28:11;8.80;99.90
68387;DHT22;55338;43.062;25.624;2023-03-21T05:30:37;8.90;99.90
68387;DHT22;55338;43.062;25.624;2023-03-21T05:33:03;9.00;99.90
68387;DHT22;55338;43.062;25.624;2023-03-21T05:35:29;9.00;99.90
68387;DHT22;55338;43.062;25.624;2023-03-21T05:37:55;9.20;99.90
68387;DHT22;55338;43.062;25.624;2023-03-21T05:40:21;9.30;99.90
68387;DHT22;55338;43.062;25.624;2023-03-21T05:42:47;9.40;99.90
68387;DHT22;55338;43.062;25.624;2023-03-21T05:45:13;9.60;99.90
68387;DHT22;55338;43.062;25.624;2023-03-21T05:47:40;9.70;99.90
68387;DHT22;55338;43.062;25.624;2023-03-21T05:50:06;9.70;99.90
68387;DHT22;55338;43.062;25.624;2023-03-21T05:52:33;9.70;99.90
68387;DHT22;55338;43.062;25.624;2023-03-21T05:54:59;9.70;99.90
68387;DHT22;55338;43.062;25.624;2023-03-21T05:57:26;9.80;99.90
68387;DHT22;55338;43.062;25.624;2023-03-21T05:59:53;9.80;99.90
68387;DHT22;55338;43.062;25.624;2023-03-21T06:02:19;10.00;99.90
68387;DHT22;55338;43.062;25.624;2023-03-21T06:04:45;10.10;99.90
68387;DHT22;55338;43.062;25.624;2023-03-21T06:07:11;10.20;99.90
68387;DHT22;55338;43.062;25.624;2023-03-21T06:09:37;10.20;99.90
68387;DHT22;55338;43.062;25.624;2023-03-21T06:12:03;10.40;99.90
68387;DHT22;55338;43.062;25.624;2023-03-21T06:14:29;10.60;99.90
68387;DHT22;55338;43.062;25.624;2023-03-21T06:16:55;10.60;98.20
68387;DHT22;55338;43.062;25.624;2023-03-21T06:19:21;10.70;97.30
68387;DHT22;55338;43.062;25.624;2023-03-21T06:21:47;10.60;97.80
68387;DHT22;55338;43.062;25.624;2023-03-21T06:24:23;10.90;96.60
68387;DHT22;55338;43.062;25.624;2023-03-21T06:26:51;11.10;96.00
68387;DHT22;55338;43.062;25.624;2023-03-21T06:29:17;11.20;94.20
68387;DHT22;55338;43.062;25.624;2023-03-21T06:31:43;12.00;92.10
68387;DHT22;55338;43.062;25.624;2023-03-21T06:34:09;12.30;90.80
68387;DHT22;55338;43.062;25.624;2023-03-21T06:36:36;12.50;87.60
68387;DHT22;55338;43.062;25.624;2023-03-21T06:39:04;12.90;86.10
68387;DHT22;55338;43.062;25.624;2023-03-21T06:41:31;13.40;83.40
68387;DHT22;55338;43.062;25.624;2023-03-21T06:43:57;13.70;80.40
68387;DHT22;55338;43.062;25.624;2023-03-21T06:46:22;14.10;79.00
68387;DHT22;55338;43.062;25.624;2023-03-21T06:48:48;14.60;76.90
68387;DHT22;55338;43.062;25.624;2023-03-21T06:51:17;14.90;73.60
68387;DHT22;55338;43.062;25.624;2023-03-21T06:53:44;15.30;71.80
68387;DHT22;55338;43.062;25.624;2023-03-21T06:56:12;15.60;70.00
68387;DHT22;55338;43.062;25.624;2023-03-21T06:58:38;15.90;69.70
68387;DHT22;55338;43.062;25.624;2023-03-21T07:01:05;16.20;66.70
68387;DHT22;55338;43.062;25.624;2023-03-21T07:03:32;16.50;66.30
68387;DHT22;55338;43.062;25.624;2023-03-21T07:06:03;16.90;64.20
68387;DHT22;55338;43.062;25.624;2023-03-21T07:08:29;17.30;62.60
68387;DHT22;55338;43.062;25.624;2023-03-21T07:10:55;17.60;62.20
68387;DHT22;55338;43.062;25.624;2023-03-21T07:13:22;17.90;62.30
68387;DHT22;55338;43.062;25.624;2023-03-21T07:15:48;18.30;58.60
68387;DHT22;55338;43.062;25.624;2023-03-21T07:18:14;18.60;57.80
68387;DHT22;55338;43.062;25.624;2023-03-21T07:20:40;18.80;56.90
68387;DHT22;55338;43.062;25.624;2023-03-21T07:23:06;19.30;55.40
68387;DHT22;55338;43.062;25.624;2023-03-21T07:25:32;19.60;55.00
68387;DHT22;55338;43.062;25.624;2023-03-21T07:27:58;20.00;52.40
68387;DHT22;55338;43.062;25.624;2023-03-21T07:30:24;20.20;51.20
68387;DHT22;55338;43.062;25.624;2023-03-21T07:32:50;20.60;50.30
68387;DHT22;55338;43.062;25.624;2023-03-21T07:35:16;20.90;50.20
68387;DHT22;55338;43.062;25.624;2023-03-21T07:37:42;21.10;48.60
68387;DHT22;55338;43.062;25.624;2023-03-21T07:40:09;21.60;47.60
68387;DHT22;55338;43.062;25.624;2023-03-21T07:42:39;21.80;46.30
68387;DHT22;55338;43.062;25.624;2023-03-21T07:45:06;21.60;46.80
68387;DHT22;55338;43.062;25.624;2023-03-21T07:47:32;21.50;46.80
68387;DHT22;55338;43.062;25.624;2023-03-21T07:49:58;21.80;46.30
68387;DHT22;55338;43.062;25.624;2023-03-21T07:52:25;22.40;44.70
68387;DHT22;55338;43.062;25.624;2023-03-21T07:54:51;22.80;44.30
68387;DHT22;55338;43.062;25.624;2023-03-21T07:57:17;22.80;44.30
68387;DHT22;55338;43.062;25.624;2023-03-21T07:59:43;23.10;43.10
68387;DHT22;55338;43.062;25.624;2023-03-21T08:02:16;22.90;42.40
68387;DHT22;55338;43.062;25.624;2023-03-21T08:04:42;22.30;44.00
68387;DHT22;55338;43.062;25.624;2023-03-21T08:07:09;21.90;43.50
68387;DHT22;55338;43.062;25.624;2023-03-21T08:13:17;21.20;45.50
68387;DHT22;55338;43.062;25.624;2023-03-21T08:15:44;20.80;46.10
68387;DHT22;55338;43.062;25.624;2023-03-21T08:18:10;20.90;45.90
68387;DHT22;55338;43.062;25.624;2023-03-21T08:20:37;21.10;45.70
68387;DHT22;55338;43.062;25.624;2023-03-21T08:23:03;21.20;45.60
68387;DHT22;55338;43.062;25.624;2023-03-21T08:25:29;21.30;44.70
68387;DHT22;55338;43.062;25.624;2023-03-21T08:27:55;21.40;45.00
68387;DHT22;55338;43.062;25.624;2023-03-21T08:30:27;21.40;45.30
68387;DHT22;55338;43.062;25.624;2023-03-21T08:32:58;21.30;45.70
68387;DHT22;55338;43.062;25.624;2023-03-21T08:35:24;21.50;44.20
68387;DHT22;55338;43.062;25.624;2023-03-21T08:37:50;21.80;44.10
68387;DHT22;55338;43.062;25.624;2023-03-21T08:40:17;21.90;43.20
68387;DHT22;55338;43.062;25.624;2023-03-21T08:42:49;22.30;44.30
68387;DHT22;55338;43.062;25.624;2023-03-21T08:45:17;22.50;42.10
68387;DHT22;55338;43.062;25.624;2023-03-21T08:47:44;22.50;42.70
68387;DHT22;55338;43.062;25.624;2023-03-21T08:50:14;22.80;43.00
68387;DHT22;55338;43.062;25.624;2023-03-21T08:52:41;23.50;40.00
68387;DHT22;55338;43.062;25.624;2023-03-21T08:55:09;23.80;40.60
68387;DHT22;55338;43.062;25.624;2023-03-21T08:57:35;23.50;39.90
68387;DHT22;55338;43.062;25.624;2023-03-21T09:00:02;24.00;39.90
68387;DHT22;55338;43.062;25.624;2023-03-21T09:02:31;24.40;40.00
68387;DHT22;55338;43.062;25.624;2023-03-21T09:04:57;24.40;39.40
68387;DHT22;55338;43.062;25.624;2023-03-21T09:07:24;24.40;37.80
68387;DHT22;55338;43.062;25.624;2023-03-21T09:09:51;24.10;38.60
68387;DHT22;55338;43.062;25.624;2023-03-21T09:12:18;23.80;39.70
68387;DHT22;55338;43.062;25.624;2023-03-21T09:14:45;23.60;38.90
68387;DHT22;55338;43.062;25.624;2023-03-21T09:17:11;23.30;39.60
68387;DHT22;55338;43.062;25.624;2023-03-21T09:19:37;23.10;39.60
68387;DHT22;55338;43.062;25.624;2023-03-21T09:22:04;22.80;40.00
68387;DHT22;55338;43.062;25.624;2023-03-21T09:24:30;22.60;41.90
68387;DHT22;55338;43.062;25.624;2023-03-21T09:26:56;22.40;40.50
68387;DHT22;55338;43.062;25.624;2023-03-21T09:29:23;22.20;41.00
68387;DHT22;55338;43.062;25.624;2023-03-21T09:31:49;22.10;41.50
68387;DHT22;55338;43.062;25.624;2023-03-21T09:34:17;22.10;43.10
68387;DHT22;55338;43.062;25.624;2023-03-21T09:36:43;22.00;42.50
68387;DHT22;55338;43.062;25.624;2023-03-21T09:39:12;22.20;42.60
68387;DHT22;55338;43.062;25.624;2023-03-21T09:44:29;22.50;42.90
68387;DHT22;55338;43.062;25.624;2023-03-21T09:49:45;22.50;42.20
68387;DHT22;55338;43.062;25.624;2023-03-21T09:52:21;22.10;42.10
68387;DHT22;55338;43.062;25.624;2023-03-21T09:54:49;21.80;42.50
68387;DHT22;55338;43.062;25.624;2023-03-21T09:59:58;22.20;43.50
68387;DHT22;55338;43.062;25.624;2023-03-21T10:05:03;22.20;43.00
68387;DHT22;55338;43.062;25.624;2023-03-21T10:07:44;22.20;44.90
68387;DHT22;55338;43.062;25.624;2023-03-21T10:10:15;22.00;43.00
68387;DHT22;55338;43.062;25.624;2023-03-21T10:12:43;22.00;43.60
68387;DHT22;55338;43.062;25.624;2023-03-21T10:15:15;21.90;44.90
68387;DHT22;55338;43.062;25.624;2023-03-21T10:17:43;22.20;46.00
68387;DHT22;55338;43.062;25.624;2023-03-21T10:20:25;22.20;43.80
68387;DHT22;55338;43.062;25.624;2023-03-21T10:22:55;22.30;45.00
68387;DHT22;55338;43.062;25.624;2023-03-21T10:25:36;22.20;44.60
68387;DHT22;55338;43.062;25.624;2023-03-21T10:28:06;22.20;45.40
68387;DHT22;55338;43.062;25.624;2023-03-21T10:30:52;22.20;44.70
68387;DHT22;55338;43.062;25.624;2023-03-21T10:33:22;21.90;45.20
68387;DHT22;55338;43.062;25.624;2023-03-21T10:35:52;21.90;45.20
68387;DHT22;55338;43.062;25.624;2023-03-21T10:38:22;21.60;44.90
68387;DHT22;55338;43.062;25.624;2023-03-21T10:40:49;21.50;45.80
68387;DHT22;55338;43.062;25.624;2023-03-21T10:43:29;21.30;45.70
68387;DHT22;55338;43.062;25.624;2023-03-21T10:45:56;21.00;46.50
68387;DHT22;55338;43.062;25.624;2023-03-21T10:48:23;20.80;48.10
68387;DHT22;55338;43.062;25.624;2023-03-21T10:50:52;20.90;49.50
68387;DHT22;55338;43.062;25.624;2023-03-21T10:53:28;21.10;47.60
68387;DHT22;55338;43.062;25.624;2023-03-21T10:55:59;21.20;47.90
68387;DHT22;55338;43.062;25.624;2023-03-21T10:58:32;21.20;47.50
68387;DHT22;55338;43.062;25.624;2023-03-21T11:01:06;21.40;46.40
68387;DHT22;55338;43.062;25.624;2023-03-21T11:03:38;21.20;46.00
68387;DHT22;55338;43.062;25.624;2023-03-21T11:08:49;21.20;46.50
68387;DHT22;55338;43.062;25.624;2023-03-21T11:11:37;21.30;46.50
68387;DHT22;55338;43.062;25.624;2023-03-21T11:14:06;21.40;47.80
68387;DHT22;55338;43.062;25.624;2023-03-21T11:16:42;21.70;46.40
68387;DHT22;55338;43.062;25.624;2023-03-21T11:19:14;21.70;45.70
68387;DHT22;55338;43.062;25.624;2023-03-21T11:21:42;21.80;46.60
68387;DHT22;55338;43.062;25.624;2023-03-21T11:24:14;21.80;47.10
68387;DHT22;55338;43.062;25.624;2023-03-21T11:26:45;21.80;46.90
68387;DHT22;55338;43.062;25.624;2023-03-21T11:29:20;21.60;46.60
68387;DHT22;55338;43.062;25.624;2023-03-21T11:32:41;21.70;47.40
68387;DHT22;55338;43.062;25.624;2023-03-21T11:35:18;21.50;45.70
68387;DHT22;55338;43.062;25.624;2023-03-21T11:37:51;21.40;46.20
68387;DHT22;55338;43.062;25.624;2023-03-21T11:42:56;21.30;46.90
68387;DHT22;55338;43.062;25.624;2023-03-21T11:45:31;21.30;47.80
68387;DHT22;55338;43.062;25.624;2023-03-21T11:48:42;21.20;48.40
68387;DHT22;55338;43.062;25.624;2023-03-21T11:56:39;21.00;48.60
68387;DHT22;55338;43.062;25.624;2023-03-21T12:25:02;20.60;47.80
68387;DHT22;55338;43.062;25.624;2023-03-21T12:27:36;20.60;47.90
68387;DHT22;55338;43.062;25.624;2023-03-21T12:33:23;20.70;49.70
68387;DHT22;55338;43.062;25.624;2023-03-21T12:39:35;20.50;49.80
68387;DHT22;55338;43.062;25.624;2023-03-21T12:41:44;20.50;48.70
68387;DHT22;55338;43.062;25.624;2023-03-21T12:44:14;20.40;49.10
68387;DHT22;55338;43.062;25.624;2023-03-21T12:49:14;20.60;48.50
68387;DHT22;55338;43.062;25.624;2023-03-21T12:51:45;20.60;48.60
68387;DHT22;55338;43.062;25.624;2023-03-21T12:59:47;20.40;49.80
68387;DHT22;55338;43.062;25.624;2023-03-21T13:05:03;20.20;49.30
68387;DHT22;55338;43.062;25.624;2023-03-21T13:07:37;20.10;49.80
68387;DHT22;55338;43.062;25.624;2023-03-21T13:10:14;20.00;50.70
68387;DHT22;55338;43.062;25.624;2023-03-21T13:21:30;20.00;51.70
68387;DHT22;55338;43.062;25.624;2023-03-21T13:24:01;20.10;50.90
68387;DHT22;55338;43.062;25.624;2023-03-21T13:26:40;20.10;50.80
68387;DHT22;55338;43.062;25.624;2023-03-21T13:31:50;20.10;51.10
68387;DHT22;55338;43.062;25.624;2023-03-21T13:34:22;20.20;51.70
68387;DHT22;55338;43.062;25.624;2023-03-21T13:36:49;20.20;50.50
68387;DHT22;55338;43.062;25.624;2023-03-21T13:39:24;20.20;50.20
68387;DHT22;55338;43.062;25.624;2023-03-21T13:41:51;20.20;50.70
68387;DHT22;55338;43.062;25.624;2023-03-21T13:44:39;20.20;50.40
68387;DHT22;55338;43.062;25.624;2023-03-21T13:47:30;20.10;50.10
68387;DHT22;55338;43.062;25.624;2023-03-21T13:55:33;20.00;49.20
68387;DHT22;55338;43.062;25.624;2023-03-21T13:58:30;20.00;50.10
68387;DHT22;55338;43.062;25.624;2023-03-21T14:03:44;20.00;51.60
68387;DHT22;55338;43.062;25.624;2023-03-21T14:06:14;19.90;50.70
68387;DHT22;55338;43.062;25.624;2023-03-21T14:08:45;19.90;50.50
68387;DHT22;55338;43.062;25.624;2023-03-21T14:11:15;19.80;50.10
68387;DHT22;55338;43.062;25.624;2023-03-21T14:13:43;19.80;50.40
68387;DHT22;55338;43.062;25.624;2023-03-21T14:16:12;19.90;50.60
68387;DHT22;55338;43.062;25.624;2023-03-21T14:18:56;20.00;51.10
68387;DHT22;55338;43.062;25.624;2023-03-21T14:21:26;20.00;51.50
68387;DHT22;55338;43.062;25.624;2023-03-21T14:24:01;20.00;51.80
68387;DHT22;55338;43.062;25.624;2023-03-21T14:26:31;20.00;49.90
68387;DHT22;55338;43.062;25.624;2023-03-21T14:28:58;20.00;50.90
68387;DHT22;55338;43.062;25.624;2023-03-21T14:32:01;20.00;51.20
68387;DHT22;55338;43.062;25.624;2023-03-21T14:35:00;20.00;51.30
68387;DHT22;55338;43.062;25.624;2023-03-21T14:37:32;19.90;51.60
68387;DHT22;55338;43.062;25.624;2023-03-21T14:40:02;19.80;50.70
68387;DHT22;55338;43.062;25.624;2023-03-21T14:42:34;19.80;50.10
68387;DHT22;55338;43.062;25.624;2023-03-21T14:45:14;19.70;51.30
68387;DHT22;55338;43.062;25.624;2023-03-21T14:47:40;19.70;50.50
68387;DHT22;55338;43.062;25.624;2023-03-21T14:50:09;19.60;50.00
